Greenwood Village, Colorado
Current Conditions -  °F | °C
As of 6:53 PM on Friday 31 Oct 2014 (Local Time) from KAPA Reporting Station
Broken Clouds Broken Clouds  
Wind Chill: 43°   Ceiling: 22000
Heat Index: 47°   Visibility: 10mi
Dew Point: 30°   Wind: 9mph
Humidity: 52%   Direction: 190°S
Pressure: 30.12"   Gusts: NA
Location:  39.6443°N, 104.983°W
Report Text: KAPA 010053Z 19008KT 10SM FEW140 BKN220 08/M01 A3012 RMK AO2 SLP197 T00831011
Loading
Personal Weather Stations






























Interactive Weather Map
Tropical Storm Tracking
New forecast layout! Learn more

10-Day Weather Forecast

Advertisements
Track Severe Weather on mobile